sensor_id;sensor_type;location;lat;lon;timestamp;temperature;humidity
5554;DHT22;2800;49.528;8.666;2022-08-11T00:00:03;21.70;99.90
5554;DHT22;2800;49.528;8.666;2022-08-11T00:02:47;21.60;99.90
5554;DHT22;2800;49.528;8.666;2022-08-11T00:05:18;21.80;99.90
5554;DHT22;2800;49.528;8.666;2022-08-11T00:07:52;21.80;99.90
5554;DHT22;2800;49.528;8.666;2022-08-11T00:10:21;21.90;99.90
5554;DHT22;2800;49.528;8.666;2022-08-11T00:12:55;22.10;99.90
5554;DHT22;2800;49.528;8.666;2022-08-11T00:15:23;22.10;99.90
5554;DHT22;2800;49.528;8.666;2022-08-11T00:17:54;22.00;99.90
5554;DHT22;2800;49.528;8.666;2022-08-11T00:20:22;21.90;99.90
5554;DHT22;2800;49.528;8.666;2022-08-11T00:23:07;22.00;99.90
5554;DHT22;2800;49.528;8.666;2022-08-11T00:25:38;22.00;99.90
5554;DHT22;2800;49.528;8.666;2022-08-11T00:30:52;21.90;99.90
5554;DHT22;2800;49.528;8.666;2022-08-11T00:33:21;21.90;99.90
5554;DHT22;2800;49.528;8.666;2022-08-11T00:35:49;21.80;99.90
5554;DHT22;2800;49.528;8.666;2022-08-11T00:38:16;21.90;99.90
5554;DHT22;2800;49.528;8.666;2022-08-11T00:46:26;22.00;99.90
5554;DHT22;2800;49.528;8.666;2022-08-11T00:59:47;21.50;99.90
5554;DHT22;2800;49.528;8.666;2022-08-11T01:08:24;21.20;99.90
5554;DHT22;2800;49.528;8.666;2022-08-11T01:28:25;21.00;99.90
5554;DHT22;2800;49.528;8.666;2022-08-11T01:31:31;21.10;99.90
5554;DHT22;2800;49.528;8.666;2022-08-11T01:34:46;21.20;99.90
5554;DHT22;2800;49.528;8.666;2022-08-11T01:40:49;21.10;99.90
5554;DHT22;2800;49.528;8.666;2022-08-11T01:46:45;21.20;99.90
5554;DHT22;2800;49.528;8.666;2022-08-11T01:49:24;21.20;99.90
5554;DHT22;2800;49.528;8.666;2022-08-11T01:54:52;21.40;99.90
5554;DHT22;2800;49.528;8.666;2022-08-11T01:59:55;21.40;99.90
5554;DHT22;2800;49.528;8.666;2022-08-11T02:02:36;21.40;99.90
5554;DHT22;2800;49.528;8.666;2022-08-11T02:08:32;21.20;99.90
5554;DHT22;2800;49.528;8.666;2022-08-11T02:14:27;21.10;99.90
5554;DHT22;2800;49.528;8.666;2022-08-11T02:17:19;20.60;99.90
5554;DHT22;2800;49.528;8.666;2022-08-11T02:23:01;21.00;99.90
5554;DHT22;2800;49.528;8.666;2022-08-11T02:26:01;20.90;99.90
5554;DHT22;2800;49.528;8.666;2022-08-11T02:31:55;21.00;99.90
5554;DHT22;2800;49.528;8.666;2022-08-11T02:35:00;20.90;99.90
5554;DHT22;2800;49.528;8.666;2022-08-11T02:42:48;20.90;99.90
5554;DHT22;2800;49.528;8.666;2022-08-11T02:48:52;20.90;99.90
5554;DHT22;2800;49.528;8.666;2022-08-11T02:51:58;20.80;99.90
5554;DHT22;2800;49.528;8.666;2022-08-11T02:57:29;20.80;99.90
5554;DHT22;2800;49.528;8.666;2022-08-11T03:00:12;20.70;99.90
5554;DHT22;2800;49.528;8.666;2022-08-11T03:08:49;20.60;99.90
5554;DHT22;2800;49.528;8.666;2022-08-11T03:11:51;20.60;99.90
5554;DHT22;2800;49.528;8.666;2022-08-11T03:14:57;20.50;99.90
5554;DHT22;2800;49.528;8.666;2022-08-11T03:18:30;20.50;99.90
5554;DHT22;2800;49.528;8.666;2022-08-11T03:21:20;20.50;99.90
5554;DHT22;2800;49.528;8.666;2022-08-11T03:24:07;20.50;99.90
5554;DHT22;2800;49.528;8.666;2022-08-11T03:26:49;20.40;99.90
5554;DHT22;2800;49.528;8.666;2022-08-11T03:32:10;20.30;99.90
5554;DHT22;2800;49.528;8.666;2022-08-11T03:34:44;20.30;99.90
5554;DHT22;2800;49.528;8.666;2022-08-11T03:40:15;20.20;99.90
5554;DHT22;2800;49.528;8.666;2022-08-11T03:43:37;20.20;99.90
5554;DHT22;2800;49.528;8.666;2022-08-11T03:46:12;20.20;99.90
5554;DHT22;2800;49.528;8.666;2022-08-11T03:51:51;20.20;99.90
5554;DHT22;2800;49.528;8.666;2022-08-11T04:05:48;20.50;99.90
5554;DHT22;2800;49.528;8.666;2022-08-11T04:09:10;20.50;99.90
5554;DHT22;2800;49.528;8.666;2022-08-11T04:23:42;20.30;99.90
5554;DHT22;2800;49.528;8.666;2022-08-11T04:29:33;20.50;99.90
5554;DHT22;2800;49.528;8.666;2022-08-11T04:32:03;20.50;99.90
5554;DHT22;2800;49.528;8.666;2022-08-11T04:40:37;20.70;99.90
5554;DHT22;2800;49.528;8.666;2022-08-11T04:57:37;20.40;99.90
5554;DHT22;2800;49.528;8.666;2022-08-11T05:00:29;20.50;99.90
5554;DHT22;2800;49.528;8.666;2022-08-11T05:16:59;21.00;99.90
5554;DHT22;2800;49.528;8.666;2022-08-11T05:19:47;21.20;99.90
5554;DHT22;2800;49.528;8.666;2022-08-11T05:22:32;21.30;99.90
5554;DHT22;2800;49.528;8.666;2022-08-11T05:25:21;21.30;99.90
5554;DHT22;2800;49.528;8.666;2022-08-11T05:28:10;21.30;99.90
5554;DHT22;2800;49.528;8.666;2022-08-11T05:30:59;21.30;99.90
5554;DHT22;2800;49.528;8.666;2022-08-11T05:33:48;21.40;99.90
5554;DHT22;2800;49.528;8.666;2022-08-11T05:36:43;21.40;99.90
5554;DHT22;2800;49.528;8.666;2022-08-11T05:39:22;21.50;99.90
5554;DHT22;2800;49.528;8.666;2022-08-11T05:42:07;21.60;99.90
5554;DHT22;2800;49.528;8.666;2022-08-11T05:45:00;21.70;99.90
5554;DHT22;2800;49.528;8.666;2022-08-11T05:47:50;21.80;99.90
5554;DHT22;2800;49.528;8.666;2022-08-11T05:50:34;21.90;99.90
5554;DHT22;2800;49.528;8.666;2022-08-11T05:53:18;21.90;99.90
5554;DHT22;2800;49.528;8.666;2022-08-11T05:56:07;22.00;99.90
5554;DHT22;2800;49.528;8.666;2022-08-11T05:58:52;22.10;99.90
5554;DHT22;2800;49.528;8.666;2022-08-11T06:01:30;22.20;99.90
5554;DHT22;2800;49.528;8.666;2022-08-11T06:03:57;22.30;99.90
5554;DHT22;2800;49.528;8.666;2022-08-11T06:06:49;22.30;99.90
5554;DHT22;2800;49.528;8.666;2022-08-11T06:09:48;22.30;99.90
5554;DHT22;2800;49.528;8.666;2022-08-11T06:12:23;22.40;99.90
5554;DHT22;2800;49.528;8.666;2022-08-11T06:14:54;22.20;99.90
5554;DHT22;2800;49.528;8.666;2022-08-11T06:17:25;22.70;99.90
5554;DHT22;2800;49.528;8.666;2022-08-11T06:20:07;23.00;99.90
5554;DHT22;2800;49.528;8.666;2022-08-11T06:22:38;23.30;99.90
5554;DHT22;2800;49.528;8.666;2022-08-11T06:25:05;23.50;99.90
5554;DHT22;2800;49.528;8.666;2022-08-11T06:27:34;23.70;99.90
5554;DHT22;2800;49.528;8.666;2022-08-11T06:30:02;23.90;99.90
5554;DHT22;2800;49.528;8.666;2022-08-11T06:32:40;24.10;99.90
5554;DHT22;2800;49.528;8.666;2022-08-11T06:35:28;24.20;99.90
5554;DHT22;2800;49.528;8.666;2022-08-11T06:38:07;24.30;99.90
5554;DHT22;2800;49.528;8.666;2022-08-11T06:40:52;24.40;99.90
5554;DHT22;2800;49.528;8.666;2022-08-11T06:46:46;24.80;99.90
5554;DHT22;2800;49.528;8.666;2022-08-11T06:49:14;24.70;99.90
5554;DHT22;2800;49.528;8.666;2022-08-11T06:52:01;24.80;99.90
5554;DHT22;2800;49.528;8.666;2022-08-11T06:54:33;24.90;99.90
5554;DHT22;2800;49.528;8.666;2022-08-11T06:56:59;25.10;99.90
5554;DHT22;2800;49.528;8.666;2022-08-11T06:59:45;25.20;99.90
5554;DHT22;2800;49.528;8.666;2022-08-11T07:05:38;25.40;99.90
5554;DHT22;2800;49.528;8.666;2022-08-11T07:14:01;25.30;99.90
5554;DHT22;2800;49.528;8.666;2022-08-11T07:16:48;25.50;99.90
5554;DHT22;2800;49.528;8.666;2022-08-11T07:19:20;25.20;99.90
5554;DHT22;2800;49.528;8.666;2022-08-11T07:22:06;25.30;99.90
5554;DHT22;2800;49.528;8.666;2022-08-11T07:24:56;25.50;99.90
5554;DHT22;2800;49.528;8.666;2022-08-11T07:27:59;25.50;99.90
5554;DHT22;2800;49.528;8.666;2022-08-11T07:30:44;25.40;99.90
5554;DHT22;2800;49.528;8.666;2022-08-11T07:33:12;25.40;99.90
5554;DHT22;2800;49.528;8.666;2022-08-11T07:35:48;26.00;99.90
5554;DHT22;2800;49.528;8.666;2022-08-11T07:38:18;26.00;99.90
5554;DHT22;2800;49.528;8.666;2022-08-11T07:40:46;25.80;99.90
5554;DHT22;2800;49.528;8.666;2022-08-11T07:43:12;25.80;99.90
5554;DHT22;2800;49.528;8.666;2022-08-11T07:45:45;25.70;99.90
5554;DHT22;2800;49.528;8.666;2022-08-11T07:48:30;25.70;99.90
5554;DHT22;2800;49.528;8.666;2022-08-11T07:51:19;25.60;99.90
5554;DHT22;2800;49.528;8.666;2022-08-11T07:54:07;25.70;99.90
5554;DHT22;2800;49.528;8.666;2022-08-11T07:56:36;25.60;99.90
5554;DHT22;2800;49.528;8.666;2022-08-11T07:59:03;25.80;99.90
5554;DHT22;2800;49.528;8.666;2022-08-11T08:01:47;25.80;99.90
5554;DHT22;2800;49.528;8.666;2022-08-11T08:04:32;26.20;99.90
5554;DHT22;2800;49.528;8.666;2022-08-11T08:07:19;26.20;99.90
5554;DHT22;2800;49.528;8.666;2022-08-11T08:10:06;26.00;99.90
5554;DHT22;2800;49.528;8.666;2022-08-11T08:12:50;26.40;99.90
5554;DHT22;2800;49.528;8.666;2022-08-11T08:15:35;26.40;99.90
5554;DHT22;2800;49.528;8.666;2022-08-11T08:18:21;26.50;99.90
5554;DHT22;2800;49.528;8.666;2022-08-11T08:20:49;27.50;99.90
5554;DHT22;2800;49.528;8.666;2022-08-11T08:23:15;27.90;99.90
5554;DHT22;2800;49.528;8.666;2022-08-11T08:25:43;27.70;99.90
5554;DHT22;2800;49.528;8.666;2022-08-11T08:28:13;28.20;99.90
5554;DHT22;2800;49.528;8.666;2022-08-11T08:30:40;28.80;99.90
5554;DHT22;2800;49.528;8.666;2022-08-11T08:33:13;29.00;99.90
5554;DHT22;2800;49.528;8.666;2022-08-11T08:35:41;29.60;99.90
5554;DHT22;2800;49.528;8.666;2022-08-11T08:38:07;29.60;99.90
5554;DHT22;2800;49.528;8.666;2022-08-11T08:40:33;29.60;99.90
5554;DHT22;2800;49.528;8.666;2022-08-11T08:43:07;28.40;99.90
5554;DHT22;2800;49.528;8.666;2022-08-11T08:45:35;28.40;99.90
5554;DHT22;2800;49.528;8.666;2022-08-11T08:48:12;28.50;99.90
5554;DHT22;2800;49.528;8.666;2022-08-11T08:51:01;28.70;99.90
5554;DHT22;2800;49.528;8.666;2022-08-11T08:53:50;29.00;99.90
5554;DHT22;2800;49.528;8.666;2022-08-11T08:56:16;29.20;99.90
5554;DHT22;2800;49.528;8.666;2022-08-11T08:58:45;30.30;99.90
5554;DHT22;2800;49.528;8.666;2022-08-11T09:01:14;29.70;99.90
5554;DHT22;2800;49.528;8.666;2022-08-11T09:03:41;29.30;99.90
5554;DHT22;2800;49.528;8.666;2022-08-11T09:06:08;28.40;99.90
5554;DHT22;2800;49.528;8.666;2022-08-11T09:08:34;27.80;99.90
5554;DHT22;2800;49.528;8.666;2022-08-11T09:11:02;28.30;99.90
5554;DHT22;2800;49.528;8.666;2022-08-11T09:13:47;29.60;99.90
5554;DHT22;2800;49.528;8.666;2022-08-11T09:16:13;30.30;99.90
5554;DHT22;2800;49.528;8.666;2022-08-11T09:18:41;30.70;99.90
5554;DHT22;2800;49.528;8.666;2022-08-11T09:21:10;30.20;99.90
5554;DHT22;2800;49.528;8.666;2022-08-11T09:23:39;29.30;99.90
5554;DHT22;2800;49.528;8.666;2022-08-11T09:26:23;29.10;99.90
5554;DHT22;2800;49.528;8.666;2022-08-11T09:29:09;29.10;99.90
5554;DHT22;2800;49.528;8.666;2022-08-11T09:31:36;29.10;99.90
5554;DHT22;2800;49.528;8.666;2022-08-11T09:34:02;29.70;99.90
5554;DHT22;2800;49.528;8.666;2022-08-11T09:36:28;30.60;99.90
5554;DHT22;2800;49.528;8.666;2022-08-11T09:39:13;30.40;99.90
5554;DHT22;2800;49.528;8.666;2022-08-11T09:42:01;31.00;99.90
5554;DHT22;2800;49.528;8.666;2022-08-11T09:44:28;31.10;99.90
5554;DHT22;2800;49.528;8.666;2022-08-11T09:47:24;30.50;99.90
5554;DHT22;2800;49.528;8.666;2022-08-11T09:50:01;30.20;99.90
5554;DHT22;2800;49.528;8.666;2022-08-11T09:52:29;30.20;99.90
5554;DHT22;2800;49.528;8.666;2022-08-11T09:54:55;30.10;99.90
5554;DHT22;2800;49.528;8.666;2022-08-11T09:57:22;29.40;99.90
5554;DHT22;2800;49.528;8.666;2022-08-11T10:00:10;29.20;99.90
5554;DHT22;2800;49.528;8.666;2022-08-11T10:02:41;29.80;99.90
5554;DHT22;2800;49.528;8.666;2022-08-11T10:05:07;30.40;99.90
5554;DHT22;2800;49.528;8.666;2022-08-11T10:07:52;30.80;99.90
5554;DHT22;2800;49.528;8.666;2022-08-11T10:10:19;31.20;99.90
5554;DHT22;2800;49.528;8.666;2022-08-11T10:12:48;31.60;99.90
5554;DHT22;2800;49.528;8.666;2022-08-11T10:15:17;32.00;99.90
5554;DHT22;2800;49.528;8.666;2022-08-11T10:18:11;31.70;99.90
5554;DHT22;2800;49.528;8.666;2022-08-11T10:21:11;31.70;99.90
5554;DHT22;2800;49.528;8.666;2022-08-11T10:23:38;31.70;99.90
5554;DHT22;2800;49.528;8.666;2022-08-11T10:26:25;31.90;99.90
5554;DHT22;2800;49.528;8.666;2022-08-11T10:29:32;32.00;99.90
5554;DHT22;2800;49.528;8.666;2022-08-11T10:32:24;32.00;99.90
5554;DHT22;2800;49.528;8.666;2022-08-11T10:35:09;32.30;99.90
5554;DHT22;2800;49.528;8.666;2022-08-11T10:37:38;32.60;99.90
5554;DHT22;2800;49.528;8.666;2022-08-11T10:40:06;31.80;99.90
5554;DHT22;2800;49.528;8.666;2022-08-11T10:42:32;32.40;99.90
5554;DHT22;2800;49.528;8.666;2022-08-11T10:45:17;33.20;99.90
5554;DHT22;2800;49.528;8.666;2022-08-11T10:48:03;32.20;99.90
5554;DHT22;2800;49.528;8.666;2022-08-11T10:50:29;31.90;99.90
5554;DHT22;2800;49.528;8.666;2022-08-11T10:53:17;31.50;99.90
5554;DHT22;2800;49.528;8.666;2022-08-11T10:56:03;32.40;99.90
5554;DHT22;2800;49.528;8.666;2022-08-11T10:58:47;33.40;99.90
5554;DHT22;2800;49.528;8.666;2022-08-11T11:03:54;31.20;99.90
5554;DHT22;2800;49.528;8.666;2022-08-11T11:09:04;32.30;99.90
5554;DHT22;2800;49.528;8.666;2022-08-11T11:11:37;33.90;99.90
5554;DHT22;2800;49.528;8.666;2022-08-11T11:14:27;34.20;99.90
5554;DHT22;2800;49.528;8.666;2022-08-11T11:17:14;34.30;99.90
5554;DHT22;2800;49.528;8.666;2022-08-11T11:19:46;33.10;99.90
5554;DHT22;2800;49.528;8.666;2022-08-11T11:22:15;32.20;99.90
5554;DHT22;2800;49.528;8.666;2022-08-11T11:25:13;33.10;99.90
5554;DHT22;2800;49.528;8.666;2022-08-11T11:31:02;35.10;99.90
5554;DHT22;2800;49.528;8.666;2022-08-11T11:38:56;35.50;99.90
5554;DHT22;2800;49.528;8.666;2022-08-11T11:41:23;35.50;99.90
5554;DHT22;2800;49.528;8.666;2022-08-11T11:43:49;34.80;99.90
5554;DHT22;2800;49.528;8.666;2022-08-11T11:46:15;33.60;99.90
5554;DHT22;2800;49.528;8.666;2022-08-11T11:48:42;33.20;99.90
5554;DHT22;2800;49.528;8.666;2022-08-11T11:51:08;33.80;99.90
5554;DHT22;2800;49.528;8.666;2022-08-11T11:53:41;33.80;99.90
5554;DHT22;2800;49.528;8.666;2022-08-11T11:56:08;34.60;99.90
5554;DHT22;2800;49.528;8.666;2022-08-11T11:58:35;35.40;99.90
5554;DHT22;2800;49.528;8.666;2022-08-11T12:01:21;36.50;99.90
5554;DHT22;2800;49.528;8.666;2022-08-11T12:03:51;36.50;99.90
5554;DHT22;2800;49.528;8.666;2022-08-11T12:06:20;36.20;99.90
5554;DHT22;2800;49.528;8.666;2022-08-11T12:08:48;34.90;99.90
5554;DHT22;2800;49.528;8.666;2022-08-11T12:11:15;34.60;99.90
5554;DHT22;2800;49.528;8.666;2022-08-11T12:14:03;33.40;99.90
5554;DHT22;2800;49.528;8.666;2022-08-11T12:16:29;34.00;99.90
5554;DHT22;2800;49.528;8.666;2022-08-11T12:18:58;34.60;99.90
5554;DHT22;2800;49.528;8.666;2022-08-11T12:21:25;34.80;99.90
5554;DHT22;2800;49.528;8.666;2022-08-11T12:23:52;35.00;99.90
5554;DHT22;2800;49.528;8.666;2022-08-11T12:26:38;35.80;99.90
5554;DHT22;2800;49.528;8.666;2022-08-11T12:29:22;36.60;99.90
5554;DHT22;2800;49.528;8.666;2022-08-11T12:31:55;36.30;99.90
5554;DHT22;2800;49.528;8.666;2022-08-11T12:34:25;36.60;99.90
5554;DHT22;2800;49.528;8.666;2022-08-11T12:37:00;36.80;99.90
5554;DHT22;2800;49.528;8.666;2022-08-11T12:39:33;35.50;99.90
5554;DHT22;2800;49.528;8.666;2022-08-11T12:42:18;36.40;99.90
5554;DHT22;2800;49.528;8.666;2022-08-11T12:45:08;38.00;99.90
5554;DHT22;2800;49.528;8.666;2022-08-11T12:48:02;38.40;99.90
5554;DHT22;2800;49.528;8.666;2022-08-11T12:50:55;35.40;99.90
5554;DHT22;2800;49.528;8.666;2022-08-11T12:53:44;36.10;99.90
5554;DHT22;2800;49.528;8.666;2022-08-11T12:56:12;37.50;99.90
5554;DHT22;2800;49.528;8.666;2022-08-11T12:58:56;37.90;99.90
5554;DHT22;2800;49.528;8.666;2022-08-11T13:01:42;38.90;99.90
5554;DHT22;2800;49.528;8.666;2022-08-11T13:04:28;39.30;99.90
5554;DHT22;2800;49.528;8.666;2022-08-11T13:07:14;39.60;99.90
5554;DHT22;2800;49.528;8.666;2022-08-11T13:09:42;38.80;99.90
5554;DHT22;2800;49.528;8.666;2022-08-11T13:12:08;39.50;99.90
5554;DHT22;2800;49.528;8.666;2022-08-11T13:14:53;39.90;99.90
5554;DHT22;2800;49.528;8.666;2022-08-11T13:17:20;39.60;99.90
5554;DHT22;2800;49.528;8.666;2022-08-11T13:19:47;39.30;99.90
5554;DHT22;2800;49.528;8.666;2022-08-11T13:22:16;39.20;99.90
5554;DHT22;2800;49.528;8.666;2022-08-11T13:24:43;39.00;99.90
5554;DHT22;2800;49.528;8.666;2022-08-11T13:27:09;39.30;99.90
5554;DHT22;2800;49.528;8.666;2022-08-11T13:29:36;39.50;99.90
5554;DHT22;2800;49.528;8.666;2022-08-11T13:32:03;38.80;99.90
5554;DHT22;2800;49.528;8.666;2022-08-11T13:34:29;38.80;99.90
5554;DHT22;2800;49.528;8.666;2022-08-11T13:37:00;38.50;99.90
5554;DHT22;2800;49.528;8.666;2022-08-11T13:39:28;38.30;99.90
5554;DHT22;2800;49.528;8.666;2022-08-11T13:41:56;39.00;99.90
5554;DHT22;2800;49.528;8.666;2022-08-11T13:44:25;39.20;99.90
5554;DHT22;2800;49.528;8.666;2022-08-11T13:46:55;38.00;99.90
5554;DHT22;2800;49.528;8.666;2022-08-11T13:49:21;38.20;99.90
5554;DHT22;2800;49.528;8.666;2022-08-11T13:51:47;38.90;99.90
5554;DHT22;2800;49.528;8.666;2022-08-11T13:54:17;38.60;99.90
5554;DHT22;2800;49.528;8.666;2022-08-11T13:56:46;38.00;99.90
5554;DHT22;2800;49.528;8.666;2022-08-11T13:59:13;37.70;99.90
5554;DHT22;2800;49.528;8.666;2022-08-11T14:01:49;37.40;99.90
5554;DHT22;2800;49.528;8.666;2022-08-11T14:04:29;38.70;99.90
5554;DHT22;2800;49.528;8.666;2022-08-11T14:06:57;39.30;99.90
5554;DHT22;2800;49.528;8.666;2022-08-11T14:09:26;39.60;99.90
5554;DHT22;2800;49.528;8.666;2022-08-11T14:11:56;39.40;99.90
5554;DHT22;2800;49.528;8.666;2022-08-11T14:14:43;38.70;99.90
5554;DHT22;2800;49.528;8.666;2022-08-11T14:17:12;38.80;99.90
5554;DHT22;2800;49.528;8.666;2022-08-11T14:19:40;39.20;99.90
5554;DHT22;2800;49.528;8.666;2022-08-11T14:22:06;39.10;99.90
5554;DHT22;2800;49.528;8.666;2022-08-11T14:24:41;38.80;99.90
5554;DHT22;2800;49.528;8.666;2022-08-11T14:27:09;39.00;99.90
5554;DHT22;2800;49.528;8.666;2022-08-11T14:29:36;38.30;99.90
5554;DHT22;2800;49.528;8.666;2022-08-11T14:32:06;38.70;99.90
5554;DHT22;2800;49.528;8.666;2022-08-11T14:34:33;38.80;99.90
5554;DHT22;2800;49.528;8.666;2022-08-11T14:37:08;39.40;99.90
5554;DHT22;2800;49.528;8.666;2022-08-11T14:39:45;38.90;99.90
5554;DHT22;2800;49.528;8.666;2022-08-11T14:42:15;38.60;99.90
5554;DHT22;2800;49.528;8.666;2022-08-11T14:45:03;36.90;99.90
5554;DHT22;2800;49.528;8.666;2022-08-11T14:47:55;36.80;99.90
5554;DHT22;2800;49.528;8.666;2022-08-11T14:50:23;37.70;99.90
5554;DHT22;2800;49.528;8.666;2022-08-11T14:52:52;37.60;99.90
5554;DHT22;2800;49.528;8.666;2022-08-11T14:55:20;37.40;99.90
5554;DHT22;2800;49.528;8.666;2022-08-11T14:58:08;35.90;99.90
5554;DHT22;2800;49.528;8.666;2022-08-11T15:00:35;35.70;99.90
5554;DHT22;2800;49.528;8.666;2022-08-11T15:03:02;34.60;99.90
5554;DHT22;2800;49.528;8.666;2022-08-11T15:05:45;34.10;99.90
5554;DHT22;2800;49.528;8.666;2022-08-11T15:08:13;33.90;99.90
5554;DHT22;2800;49.528;8.666;2022-08-11T15:10:40;34.60;99.90
5554;DHT22;2800;49.528;8.666;2022-08-11T15:13:06;35.00;99.90
5554;DHT22;2800;49.528;8.666;2022-08-11T15:15:32;35.20;99.90
5554;DHT22;2800;49.528;8.666;2022-08-11T15:18:19;35.00;99.90
5554;DHT22;2800;49.528;8.666;2022-08-11T15:20:45;36.60;99.90
5554;DHT22;2800;49.528;8.666;2022-08-11T15:23:34;37.30;99.90
5554;DHT22;2800;49.528;8.666;2022-08-11T15:26:31;37.70;99.90
5554;DHT22;2800;49.528;8.666;2022-08-11T15:29:19;36.90;99.90
5554;DHT22;2800;49.528;8.666;2022-08-11T15:32:05;36.70;99.90
5554;DHT22;2800;49.528;8.666;2022-08-11T15:34:56;36.70;99.90
5554;DHT22;2800;49.528;8.666;2022-08-11T15:37:43;36.60;99.90
5554;DHT22;2800;49.528;8.666;2022-08-11T15:40:18;36.70;99.90
5554;DHT22;2800;49.528;8.666;2022-08-11T15:43:20;37.10;99.90
5554;DHT22;2800;49.528;8.666;2022-08-11T15:46:32;37.50;99.90
5554;DHT22;2800;49.528;8.666;2022-08-11T15:49:17;38.10;99.90
5554;DHT22;2800;49.528;8.666;2022-08-11T15:51:49;38.30;99.90
5554;DHT22;2800;49.528;8.666;2022-08-11T15:54:25;38.10;99.90
5554;DHT22;2800;49.528;8.666;2022-08-11T15:56:53;36.80;99.90
5554;DHT22;2800;49.528;8.666;2022-08-11T15:59:20;36.30;99.90
5554;DHT22;2800;49.528;8.666;2022-08-11T16:02:08;36.20;99.90
5554;DHT22;2800;49.528;8.666;2022-08-11T16:04:43;36.10;99.90
5554;DHT22;2800;49.528;8.666;2022-08-11T16:07:11;36.40;99.90
5554;DHT22;2800;49.528;8.666;2022-08-11T16:09:57;36.80;99.90
5554;DHT22;2800;49.528;8.666;2022-08-11T16:12:46;36.50;99.90
5554;DHT22;2800;49.528;8.666;2022-08-11T16:15:30;35.70;99.90
5554;DHT22;2800;49.528;8.666;2022-08-11T16:18:18;35.20;99.90
5554;DHT22;2800;49.528;8.666;2022-08-11T16:20:45;34.50;99.90
5554;DHT22;2800;49.528;8.666;2022-08-11T16:23:12;34.20;99.90
5554;DHT22;2800;49.528;8.666;2022-08-11T16:25:41;34.40;99.90
5554;DHT22;2800;49.528;8.666;2022-08-11T16:28:08;33.90;99.90
5554;DHT22;2800;49.528;8.666;2022-08-11T16:30:38;33.70;99.90
5554;DHT22;2800;49.528;8.666;2022-08-11T16:33:05;33.10;99.90
5554;DHT22;2800;49.528;8.666;2022-08-11T16:35:35;33.40;99.90
5554;DHT22;2800;49.528;8.666;2022-08-11T16:38:22;33.70;99.90
5554;DHT22;2800;49.528;8.666;2022-08-11T16:41:08;33.70;99.90
5554;DHT22;2800;49.528;8.666;2022-08-11T16:43:38;33.90;99.90
5554;DHT22;2800;49.528;8.666;2022-08-11T16:46:24;33.80;99.90
5554;DHT22;2800;49.528;8.666;2022-08-11T16:49:17;33.90;99.90
5554;DHT22;2800;49.528;8.666;2022-08-11T16:51:44;33.50;99.90
5554;DHT22;2800;49.528;8.666;2022-08-11T16:54:10;33.00;99.90
5554;DHT22;2800;49.528;8.666;2022-08-11T16:56:50;32.60;99.90
5554;DHT22;2800;49.528;8.666;2022-08-11T16:59:42;32.10;99.90
5554;DHT22;2800;49.528;8.666;2022-08-11T17:02:17;31.80;99.90
5554;DHT22;2800;49.528;8.666;2022-08-11T17:05:07;31.80;99.90
5554;DHT22;2800;49.528;8.666;2022-08-11T17:07:54;31.40;99.90
5554;DHT22;2800;49.528;8.666;2022-08-11T17:10:45;31.40;99.90
5554;DHT22;2800;49.528;8.666;2022-08-11T17:13:39;31.40;99.90
5554;DHT22;2800;49.528;8.666;2022-08-11T17:16:09;31.50;99.90
5554;DHT22;2800;49.528;8.666;2022-08-11T17:19:04;31.40;99.90
5554;DHT22;2800;49.528;8.666;2022-08-11T17:21:38;31.20;99.90
5554;DHT22;2800;49.528;8.666;2022-08-11T17:24:25;31.10;99.90
5554;DHT22;2800;49.528;8.666;2022-08-11T17:26:53;30.60;99.90
5554;DHT22;2800;49.528;8.666;2022-08-11T17:32:04;30.30;99.90
5554;DHT22;2800;49.528;8.666;2022-08-11T17:34:51;30.30;99.90
5554;DHT22;2800;49.528;8.666;2022-08-11T17:37:37;30.40;99.90
5554;DHT22;2800;49.528;8.666;2022-08-11T17:40:06;30.50;99.90
5554;DHT22;2800;49.528;8.666;2022-08-11T17:42:33;30.40;99.90
5554;DHT22;2800;49.528;8.666;2022-08-11T17:45:20;30.30;99.90
5554;DHT22;2800;49.528;8.666;2022-08-11T17:48:06;30.20;99.90
5554;DHT22;2800;49.528;8.666;2022-08-11T17:50:56;30.20;99.90
5554;DHT22;2800;49.528;8.666;2022-08-11T17:53:24;30.10;99.90
5554;DHT22;2800;49.528;8.666;2022-08-11T17:56:10;29.90;99.90
5554;DHT22;2800;49.528;8.666;2022-08-11T17:58:55;29.80;99.90
5554;DHT22;2800;49.528;8.666;2022-08-11T18:01:42;29.70;99.90
5554;DHT22;2800;49.528;8.666;2022-08-11T18:04:09;29.70;99.90
5554;DHT22;2800;49.528;8.666;2022-08-11T18:06:37;29.70;99.90
5554;DHT22;2800;49.528;8.666;2022-08-11T18:09:09;29.70;99.90
5554;DHT22;2800;49.528;8.666;2022-08-11T18:11:55;29.60;99.90
5554;DHT22;2800;49.528;8.666;2022-08-11T18:14:45;29.30;99.90
5554;DHT22;2800;49.528;8.666;2022-08-11T18:17:30;29.30;99.90
5554;DHT22;2800;49.528;8.666;2022-08-11T18:20:15;29.30;99.90
5554;DHT22;2800;49.528;8.666;2022-08-11T18:23:04;29.20;99.90
5554;DHT22;2800;49.528;8.666;2022-08-11T18:25:50;29.10;99.90
5554;DHT22;2800;49.528;8.666;2022-08-11T18:28:41;28.90;99.90
5554;DHT22;2800;49.528;8.666;2022-08-11T18:31:26;28.90;99.90
5554;DHT22;2800;49.528;8.666;2022-08-11T18:34:13;28.80;99.90
5554;DHT22;2800;49.528;8.666;2022-08-11T18:37:05;28.70;99.90
5554;DHT22;2800;49.528;8.666;2022-08-11T18:40:03;28.40;99.90
5554;DHT22;2800;49.528;8.666;2022-08-11T18:42:49;28.40;99.90
5554;DHT22;2800;49.528;8.666;2022-08-11T18:45:37;28.10;99.90
5554;DHT22;2800;49.528;8.666;2022-08-11T18:48:22;27.90;99.90
5554;DHT22;2800;49.528;8.666;2022-08-11T18:51:08;27.70;99.90
5554;DHT22;2800;49.528;8.666;2022-08-11T18:54:04;27.50;99.90
5554;DHT22;2800;49.528;8.666;2022-08-11T18:56:50;27.20;99.90
5554;DHT22;2800;49.528;8.666;2022-08-11T18:59:38;26.80;99.90
5554;DHT22;2800;49.528;8.666;2022-08-11T19:02:25;26.50;99.90
5554;DHT22;2800;49.528;8.666;2022-08-11T19:05:10;26.20;99.90
5554;DHT22;2800;49.528;8.666;2022-08-11T19:07:57;25.90;99.90
5554;DHT22;2800;49.528;8.666;2022-08-11T19:10:44;25.50;99.90
5554;DHT22;2800;49.528;8.666;2022-08-11T19:13:31;25.40;99.90
5554;DHT22;2800;49.528;8.666;2022-08-11T19:16:16;25.10;99.90
5554;DHT22;2800;49.528;8.666;2022-08-11T19:19:02;24.90;99.90
5554;DHT22;2800;49.528;8.666;2022-08-11T19:21:48;24.60;99.90
5554;DHT22;2800;49.528;8.666;2022-08-11T19:24:36;24.50;99.90
5554;DHT22;2800;49.528;8.666;2022-08-11T19:27:23;24.40;99.90
5554;DHT22;2800;49.528;8.666;2022-08-11T19:30:08;24.30;99.90
5554;DHT22;2800;49.528;8.666;2022-08-11T19:32:53;24.20;99.90
5554;DHT22;2800;49.528;8.666;2022-08-11T19:35:39;24.10;99.90
5554;DHT22;2800;49.528;8.666;2022-08-11T19:38:25;24.00;99.90
5554;DHT22;2800;49.528;8.666;2022-08-11T19:41:10;23.90;99.90
5554;DHT22;2800;49.528;8.666;2022-08-11T19:43:56;23.80;99.90
5554;DHT22;2800;49.528;8.666;2022-08-11T19:46:40;23.70;99.90
5554;DHT22;2800;49.528;8.666;2022-08-11T19:49:25;23.50;99.90
5554;DHT22;2800;49.528;8.666;2022-08-11T19:52:10;23.50;99.90
5554;DHT22;2800;49.528;8.666;2022-08-11T19:54:55;23.40;99.90
5554;DHT22;2800;49.528;8.666;2022-08-11T19:57:40;23.30;99.90
5554;DHT22;2800;49.528;8.666;2022-08-11T20:00:25;23.20;99.90
5554;DHT22;2800;49.528;8.666;2022-08-11T20:03:11;23.20;99.90
5554;DHT22;2800;49.528;8.666;2022-08-11T20:05:59;23.10;99.90
5554;DHT22;2800;49.528;8.666;2022-08-11T20:08:46;23.00;99.90
5554;DHT22;2800;49.528;8.666;2022-08-11T20:11:34;23.00;99.90
5554;DHT22;2800;49.528;8.666;2022-08-11T20:14:20;23.00;99.90
5554;DHT22;2800;49.528;8.666;2022-08-11T20:17:08;22.90;99.90
5554;DHT22;2800;49.528;8.666;2022-08-11T20:19:54;22.80;99.90